Time;durP1;ratioP1;P1;durP2;ratioP2;P2;SDS_P1;SDS_P2;PMS_P1;PMS_P2;Temp;Humidity;BMP_temperature;BMP_pressure;BME280_temperature;BME280_humidity;BME280_pressure;Samples;Min_cycle;Max_cycle;Signal;HPM_P1;HPM_P2
2022/10/15 00:00:46;;;;;;;5.53;4.60;;;11.20;99.90;;;;;;5027644;28;20025;-78
2022/10/15 00:03:12;;;;;;;7.25;5.45;;;11.20;99.90;;;;;;5025787;28;20389;-77
2022/10/15 00:05:39;;;;;;;6.85;5.57;;;11.20;99.90;;;;;;5028286;28;20533;-82
2022/10/15 00:08:10;;;;;;;6.28;4.82;;;11.10;99.90;;;;;;5028931;28;20362;-82
2022/10/15 00:10:36;;;;;;;7.43;5.05;;;11.20;99.90;;;;;;5028570;28;20025;-77
2022/10/15 00:13:03;;;;;;;4.93;4.22;;;11.10;99.90;;;;;;5027810;28;20045;-77
2022/10/15 00:15:29;;;;;;;6.00;4.88;;;11.10;99.90;;;;;;5027071;28;20030;-77
2022/10/15 00:17:55;;;;;;;5.38;4.55;;;11.10;99.90;;;;;;5026859;28;20024;-83
2022/10/15 00:20:21;;;;;;;4.97;4.47;;;11.00;99.90;;;;;;5027954;28;20104;-78
2022/10/15 00:22:47;;;;;;;4.70;4.25;;;10.90;99.90;;;;;;5027583;28;20022;-83
2022/10/15 00:25:12;;;;;;;5.03;4.25;;;10.90;99.90;;;;;;5027953;28;20500;-77
2022/10/15 00:27:38;;;;;;;4.22;3.72;;;10.80;99.90;;;;;;5028067;28;20382;-83
2022/10/15 00:30:05;;;;;;;4.53;4.13;;;10.80;99.90;;;;;;5025971;28;20039;-77
2022/10/15 00:32:31;;;;;;;4.22;3.67;;;10.70;99.90;;;;;;5027434;28;20484;-77
2022/10/15 00:34:57;;;;;;;4.32;3.88;;;10.70;99.90;;;;;;5025850;28;20068;-77
2022/10/15 00:37:23;;;;;;;6.35;3.40;;;10.70;99.90;;;;;;5027488;28;20060;-77
2022/10/15 00:39:49;;;;;;;8.95;3.22;;;10.70;99.90;;;;;;5027402;28;20036;-79
2022/10/15 00:42:15;;;;;;;3.20;2.80;;;10.60;99.90;;;;;;5027683;28;20036;-77
2022/10/15 00:44:55;;;;;;;3.15;2.85;;;10.60;99.90;;;;;;5026656;28;20389;-80
2022/10/15 00:47:38;;;;;;;3.33;2.47;;;10.50;99.90;;;;;;5025338;28;20067;-82
2022/10/15 00:50:12;;;;;;;3.53;3.08;;;10.50;99.90;;;;;;5043163;28;20037;-79
2022/10/15 00:52:46;;;;;;;3.50;2.95;;;10.40;99.90;;;;;;5028118;28;20068;-78
2022/10/15 00:55:17;;;;;;;3.25;2.78;;;10.30;99.90;;;;;;5026384;28;20029;-83
2022/10/15 00:57:45;;;;;;;4.00;2.92;;;10.30;99.90;;;;;;5026255;28;20401;-79
2022/10/15 01:00:14;;;;;;;3.30;2.55;;;10.30;99.90;;;;;;5026718;28;20091;-83
2022/10/15 01:02:41;;;;;;;3.72;2.80;;;10.10;99.90;;;;;;5042805;28;20493;-78
2022/10/15 01:05:07;;;;;;;3.60;2.75;;;10.20;99.90;;;;;;5028349;28;20035;-80
2022/10/15 01:07:33;;;;;;;4.30;3.00;;;10.20;99.90;;;;;;5026121;28;20111;-78
2022/10/15 01:10:00;;;;;;;4.05;2.67;;;10.10;99.90;;;;;;5025973;28;20561;-77
2022/10/15 01:12:42;;;;;;;3.40;2.80;;;10.10;99.90;;;;;;5026892;28;20054;-83
2022/10/15 01:15:18;;;;;;;3.00;2.10;;;10.00;99.90;;;;;;5026739;28;20029;-77
2022/10/15 01:17:46;;;;;;;3.35;2.50;;;10.00;99.90;;;;;;5027932;28;20029;-80
2022/10/15 01:20:44;;;;;;;5.35;3.38;;;10.00;99.90;;;;;;5025792;28;20029;-78
2022/10/15 01:23:25;;;;;;;4.35;2.83;;;10.00;99.90;;;;;;5012063;28;20017;-78
2022/10/15 01:26:28;;;;;;;3.05;2.33;;;10.00;99.90;;;;;;5040760;28;20508;-81
2022/10/15 01:29:20;;;;;;;3.78;2.72;;;9.90;99.90;;;;;;5041622;28;20405;-78
2022/10/15 01:32:11;;;;;;;5.97;4.15;;;9.90;99.90;;;;;;5026767;28;20029;-83
2022/10/15 01:35:10;;;;;;;6.28;3.97;;;9.90;99.90;;;;;;5028178;28;20459;-84
2022/10/15 01:38:15;;;;;;;7.00;4.90;;;9.90;99.90;;;;;;5046644;28;20044;-77
2022/10/15 01:40:57;;;;;;;9.88;5.38;;;9.90;99.90;;;;;;5027991;28;20128;-83
2022/10/15 01:43:47;;;;;;;7.38;5.57;;;10.00;99.90;;;;;;5035260;28;20026;-80
2022/10/15 01:47:02;;;;;;;8.88;5.53;;;10.10;99.90;;;;;;4969698;28;20466;-77
2022/10/15 01:49:31;;;;;;;8.35;5.78;;;10.10;99.90;;;;;;4968636;28;20211;-83
2022/10/15 01:52:07;;;;;;;8.02;5.32;;;10.10;99.90;;;;;;4985680;28;20101;-81
2022/10/15 01:54:33;;;;;;;6.97;5.22;;;10.20;99.90;;;;;;4985789;28;20058;-78
2022/10/15 01:57:00;;;;;;;9.98;6.15;;;10.20;99.90;;;;;;4936579;28;20503;-79
2022/10/15 01:59:30;;;;;;;8.80;5.55;;;10.30;99.90;;;;;;4952958;28;20115;-83
2022/10/15 02:01:57;;;;;;;6.90;4.97;;;10.30;99.90;;;;;;4953439;28;20057;-77
2022/10/15 02:04:24;;;;;;;7.85;5.63;;;10.30;99.90;;;;;;4969019;28;20047;-82
2022/10/15 02:07:13;;;;;;;8.20;5.30;;;10.30;99.90;;;;;;4953782;28;20034;-83
2022/10/15 02:09:49;;;;;;;7.40;5.43;;;10.30;99.90;;;;;;4985681;28;20035;-77
2022/10/15 02:12:46;;;;;;;8.32;5.32;;;10.20;99.90;;;;;;4952293;28;20147;-83
2022/10/15 02:15:38;;;;;;;7.32;4.97;;;10.10;99.90;;;;;;4984389;28;20027;-80
2022/10/15 02:18:13;;;;;;;7.43;5.50;;;10.00;99.90;;;;;;4960526;28;20043;-78
2022/10/15 02:20:50;;;;;;;6.93;5.32;;;10.00;99.90;;;;;;4969183;28;20479;-78
2022/10/15 02:23:20;;;;;;;7.75;5.30;;;10.10;99.90;;;;;;5003562;28;20425;-77
2022/10/15 02:25:49;;;;;;;6.97;4.93;;;10.10;99.90;;;;;;5028788;28;20048;-82
2022/10/15 02:28:17;;;;;;;7.90;5.60;;;10.10;99.90;;;;;;5029745;28;20041;-81
2022/10/15 02:30:49;;;;;;;7.00;5.30;;;10.10;99.90;;;;;;5045382;28;20022;-82
2022/10/15 02:33:17;;;;;;;7.55;5.07;;;10.10;99.90;;;;;;5028655;28;20026;-80
2022/10/15 02:35:45;;;;;;;7.18;5.00;;;10.20;99.90;;;;;;5030543;28;20457;-77
2022/10/15 02:38:14;;;;;;;7.88;5.40;;;10.30;99.90;;;;;;5029526;28;20099;-83
2022/10/15 02:40:42;;;;;;;8.52;5.88;;;10.30;99.90;;;;;;5045888;28;20112;-79
2022/10/15 02:43:11;;;;;;;9.73;6.43;;;10.30;99.90;;;;;;5028042;28;20160;-83
2022/10/15 02:45:37;;;;;;;8.93;5.95;;;10.40;99.90;;;;;;5028580;28;20029;-82
2022/10/15 02:48:03;;;;;;;9.23;6.90;;;10.40;99.90;;;;;;5027817;28;20113;-80
2022/10/15 02:50:29;;;;;;;8.13;6.38;;;10.50;99.90;;;;;;5029939;28;20663;-79
2022/10/15 02:52:55;;;;;;;12.18;7.43;;;10.50;99.90;;;;;;5029054;28;20472;-80
2022/10/15 02:55:20;;;;;;;10.48;7.75;;;10.50;99.90;;;;;;5010972;28;20026;-83
2022/10/15 02:57:46;;;;;;;8.93;6.55;;;10.50;99.90;;;;;;5027783;28;20061;-78
2022/10/15 03:00:12;;;;;;;11.75;7.10;;;10.60;99.90;;;;;;5029863;28;20084;-80
2022/10/15 03:02:39;;;;;;;10.98;7.28;;;10.60;99.90;;;;;;5029725;28;20393;-83
2022/10/15 03:05:05;;;;;;;10.18;7.63;;;10.60;99.90;;;;;;5028781;28;20087;-77
2022/10/15 03:07:31;;;;;;;8.45;6.45;;;10.60;99.90;;;;;;5027468;28;20037;-83
2022/10/15 03:09:58;;;;;;;11.02;8.13;;;10.60;99.90;;;;;;5028533;28;20048;-83
2022/10/15 03:12:24;;;;;;;9.10;6.97;;;10.70;99.90;;;;;;5009757;28;20490;-83
2022/10/15 03:14:52;;;;;;;9.77;7.07;;;10.70;99.90;;;;;;5045495;28;20496;-79
2022/10/15 03:17:18;;;;;;;11.95;8.18;;;10.70;99.90;;;;;;5044683;28;20416;-83
2022/10/15 03:19:43;;;;;;;10.23;6.97;;;10.60;99.90;;;;;;5028640;28;20025;-77
2022/10/15 03:22:10;;;;;;;10.27;7.03;;;10.70;99.90;;;;;;5027997;28;20080;-79
2022/10/15 03:24:45;;;;;;;9.32;7.10;;;10.70;99.90;;;;;;5028257;28;20043;-83
2022/10/15 03:27:11;;;;;;;11.48;7.55;;;10.60;99.90;;;;;;5027464;28;20108;-77
2022/10/15 03:29:37;;;;;;;12.30;7.07;;;10.60;99.90;;;;;;5028316;28;20026;-77
2022/10/15 03:32:03;;;;;;;10.40;7.80;;;10.80;99.90;;;;;;5027502;28;20473;-77
2022/10/15 03:34:28;;;;;;;10.23;7.07;;;10.80;99.90;;;;;;5011428;28;20028;-80
2022/10/15 03:36:54;;;;;;;11.45;7.75;;;10.70;99.90;;;;;;5044662;28;20103;-81
2022/10/15 03:39:20;;;;;;;9.10;6.63;;;10.70;99.90;;;;;;5027475;28;20374;-80
2022/10/15 03:41:45;;;;;;;10.98;7.68;;;10.60;99.90;;;;;;5028082;28;20022;-82
2022/10/15 03:44:18;;;;;;;9.68;7.03;;;10.60;99.90;;;;;;5026871;28;20369;-80
2022/10/15 03:46:54;;;;;;;11.68;7.50;;;10.60;99.90;;;;;;5012226;28;20033;-78
2022/10/15 03:49:23;;;;;;;10.95;7.47;;;10.70;99.90;;;;;;5043817;28;20035;-83
2022/10/15 03:51:48;;;;;;;12.68;7.50;;;10.80;99.90;;;;;;5027960;28;20537;-77
2022/10/15 03:54:15;;;;;;;10.75;7.38;;;10.80;99.90;;;;;;5026787;28;20029;-77
2022/10/15 03:56:48;;;;;;;8.43;6.63;;;10.80;99.90;;;;;;5027192;28;20017;-84
2022/10/15 03:59:26;;;;;;;11.55;7.95;;;10.80;99.90;;;;;;5027066;28;20473;-77
2022/10/15 04:01:58;;;;;;;12.05;7.50;;;10.90;99.90;;;;;;5027643;28;20030;-82
2022/10/15 04:04:24;;;;;;;11.15;8.10;;;10.90;99.90;;;;;;5042955;28;20078;-78
2022/10/15 04:06:50;;;;;;;9.75;7.28;;;10.90;99.90;;;;;;5027358;28;20037;-83
2022/10/15 04:09:17;;;;;;;11.30;7.95;;;11.00;99.90;;;;;;5027016;28;20420;-78
2022/10/15 04:11:42;;;;;;;11.88;7.95;;;11.00;99.90;;;;;;5027178;28;20029;-78
2022/10/15 04:14:09;;;;;;;13.27;8.68;;;11.10;99.90;;;;;;5026822;28;20076;-77
2022/10/15 04:16:34;;;;;;;11.25;7.85;;;11.00;99.90;;;;;;5026811;28;20436;-79
2022/10/15 04:19:09;;;;;;;10.20;7.60;;;11.10;99.90;;;;;;5027304;28;20434;-82
2022/10/15 04:21:35;;;;;;;10.98;7.45;;;11.00;99.90;;;;;;5027206;28;20120;-78
2022/10/15 04:24:02;;;;;;;11.40;8.52;;;11.00;99.90;;;;;;5026393;28;20030;-78
2022/10/15 04:26:33;;;;;;;10.48;7.18;;;11.10;99.90;;;;;;5011402;28;20094;-82
2022/10/15 04:29:00;;;;;;;13.77;8.05;;;11.10;99.90;;;;;;5026569;28;20168;-77
2022/10/15 04:31:26;;;;;;;9.85;6.97;;;11.10;99.90;;;;;;5042833;28;20065;-83
2022/10/15 04:33:52;;;;;;;10.63;7.30;;;11.20;99.90;;;;;;5026951;28;20075;-79
2022/10/15 04:36:18;;;;;;;11.77;7.95;;;11.20;99.90;;;;;;5026025;28;20029;-82
2022/10/15 04:38:51;;;;;;;11.60;8.15;;;11.20;99.90;;;;;;5026713;28;20033;-82
2022/10/15 04:41:33;;;;;;;11.48;8.05;;;11.20;99.90;;;;;;5026294;28;20462;-78
2022/10/15 04:44:03;;;;;;;11.10;7.63;;;11.20;99.90;;;;;;5042634;28;20029;-78
2022/10/15 04:46:30;;;;;;;10.70;8.30;;;11.30;99.90;;;;;;5026576;28;20025;-83
2022/10/15 04:49:00;;;;;;;11.10;8.27;;;11.20;99.90;;;;;;5026901;28;20044;-80
2022/10/15 04:51:26;;;;;;;11.77;8.95;;;11.30;99.90;;;;;;5026999;28;20041;-79
2022/10/15 04:54:07;;;;;;;10.32;7.65;;;11.20;99.90;;;;;;5025506;28;20056;-77
2022/10/15 04:56:36;;;;;;;11.77;7.95;;;11.30;99.90;;;;;;5027287;28;20022;-82
2022/10/15 04:59:06;;;;;;;9.90;7.55;;;11.20;99.90;;;;;;5026173;28;20152;-77
2022/10/15 05:01:37;;;;;;;9.55;6.82;;;11.20;99.90;;;;;;5043532;28;20491;-79
2022/10/15 05:04:08;;;;;;;;;;;11.30;99.90;;;;;;5042154;28;20470;-79
2022/10/15 05:06:36;;;;;;;8.75;6.45;;;11.30;99.90;;;;;;5025688;28;20293;-82
2022/10/15 05:09:14;;;;;;;9.80;7.95;;;11.40;99.90;;;;;;5041909;28;20026;-77
2022/10/15 05:11:45;;;;;;;12.80;7.65;;;11.50;99.90;;;;;;5025973;28;20112;-78
2022/10/15 05:14:12;;;;;;;10.70;7.60;;;11.50;99.90;;;;;;5042377;28;20026;-78
2022/10/15 05:16:37;;;;;;;12.05;8.77;;;11.50;99.90;;;;;;5041537;28;20029;-77
2022/10/15 05:19:05;;;;;;;12.65;9.20;;;11.50;99.90;;;;;;5010332;28;20108;-82
2022/10/15 05:21:33;;;;;;;12.35;8.85;;;11.60;99.90;;;;;;5025493;28;20816;-77
2022/10/15 05:24:04;;;;;;;12.18;9.70;;;11.60;99.90;;;;;;5024905;28;20470;-79
2022/10/15 05:26:53;;;;;;;11.77;8.93;;;11.60;99.90;;;;;;5025243;28;20033;-78
2022/10/15 05:29:21;;;;;;;14.55;10.50;;;11.70;99.90;;;;;;5024875;28;20487;-83
2022/10/15 05:31:49;;;;;;;14.75;10.82;;;11.70;99.90;;;;;;5026088;28;20144;-77
2022/10/15 05:34:19;;;;;;;15.30;11.20;;;11.70;99.90;;;;;;5025730;28;20083;-77
2022/10/15 05:36:58;;;;;;;13.90;10.40;;;11.70;99.90;;;;;;5025748;28;20540;-77
2022/10/15 05:39:24;;;;;;;16.17;11.73;;;11.80;99.90;;;;;;5024911;28;20057;-81
2022/10/15 05:41:52;;;;;;;17.63;13.25;;;11.80;99.90;;;;;;5026128;28;20168;-77
2022/10/15 05:44:21;;;;;;;15.73;11.25;;;11.80;99.90;;;;;;5025742;28;20026;-78
2022/10/15 05:46:47;;;;;;;16.55;11.65;;;11.70;99.90;;;;;;5027155;28;20060;-78
2022/10/15 05:49:19;;;;;;;15.20;11.82;;;11.80;99.90;;;;;;5025331;28;20022;-77
2022/10/15 05:51:51;;;;;;;17.55;13.23;;;11.90;99.90;;;;;;5025289;28;20022;-77
2022/10/15 05:54:31;;;;;;;15.45;11.13;;;11.90;99.90;;;;;;5041607;28;20040;-77
2022/10/15 05:56:57;;;;;;;18.92;13.65;;;11.90;99.90;;;;;;5026175;28;20025;-78
2022/10/15 05:59:23;;;;;;;17.00;12.52;;;11.90;99.90;;;;;;5025153;28;20029;-79
2022/10/15 06:01:48;;;;;;;19.88;13.70;;;12.00;99.90;;;;;;5026427;28;20026;-79
2022/10/15 06:04:15;;;;;;;19.50;13.82;;;12.00;99.90;;;;;;5026049;28;20735;-83
2022/10/15 06:06:41;;;;;;;22.73;15.98;;;12.00;99.90;;;;;;5026473;28;20029;-78
2022/10/15 06:09:07;;;;;;;24.98;15.55;;;12.00;99.90;;;;;;5027122;28;20381;-77
2022/10/15 06:11:34;;;;;;;26.42;17.35;;;12.10;99.90;;;;;;5027016;28;20103;-78
2022/10/15 06:14:00;;;;;;;25.20;16.35;;;12.10;99.90;;;;;;5004722;28;20456;-77
2022/10/15 06:16:25;;;;;;;26.40;18.42;;;12.10;99.90;;;;;;5005945;28;20022;-79
2022/10/15 06:18:52;;;;;;;23.23;16.88;;;12.10;99.90;;;;;;5006984;28;20108;-78
2022/10/15 06:21:18;;;;;;;24.55;15.82;;;12.20;99.90;;;;;;5007863;28;20033;-77
2022/10/15 06:23:44;;;;;;;23.58;15.05;;;12.20;99.90;;;;;;5010472;28;20029;-77
2022/10/15 06:26:10;;;;;;;23.38;16.23;;;12.20;99.90;;;;;;5009640;28;20044;-77
2022/10/15 06:28:37;;;;;;;23.42;15.00;;;12.20;99.90;;;;;;5009182;28;20482;-83
2022/10/15 06:31:03;;;;;;;21.42;13.35;;;12.20;99.90;;;;;;5009908;28;20046;-78
2022/10/15 06:33:30;;;;;;;21.83;13.75;;;12.20;99.90;;;;;;5008969;28;20021;-78
2022/10/15 06:36:00;;;;;;;19.77;13.07;;;12.20;99.90;;;;;;5009657;28;20032;-78
2022/10/15 06:38:26;;;;;;;19.27;13.18;;;12.20;99.90;;;;;;5008124;28;20030;-78
2022/10/15 06:40:52;;;;;;;17.23;12.00;;;12.30;99.90;;;;;;5009854;28;20087;-79
2022/10/15 06:43:17;;;;;;;16.88;11.80;;;12.30;99.90;;;;;;5008071;28;20025;-79
2022/10/15 06:45:44;;;;;;;17.45;13.13;;;12.30;99.90;;;;;;5041712;28;20398;-78
2022/10/15 06:48:16;;;;;;;19.63;13.35;;;12.30;99.90;;;;;;5007280;28;20061;-78
2022/10/15 06:50:42;;;;;;;20.48;14.05;;;12.30;99.90;;;;;;5009283;28;20040;-78
2022/10/15 06:53:08;;;;;;;16.08;11.30;;;12.40;99.90;;;;;;5007858;28;20463;-80
2022/10/15 06:55:34;;;;;;;19.40;13.38;;;12.40;99.90;;;;;;5008802;28;20615;-77
2022/10/15 06:57:59;;;;;;;17.35;12.07;;;12.40;99.90;;;;;;5009839;28;20104;-79
2022/10/15 07:00:28;;;;;;;16.30;12.43;;;12.40;99.90;;;;;;5009426;28;20374;-77
2022/10/15 07:02:53;;;;;;;17.38;12.40;;;12.40;99.90;;;;;;5009227;28;20497;-78
2022/10/15 07:05:19;;;;;;;19.52;13.02;;;12.40;99.90;;;;;;5008548;28;20196;-77
2022/10/15 07:07:52;;;;;;;18.83;13.48;;;12.50;99.90;;;;;;5008701;28;20089;-78
2022/10/15 07:10:19;;;;;;;18.58;12.88;;;12.50;99.90;;;;;;5008360;28;20029;-77
2022/10/15 07:12:45;;;;;;;16.95;12.30;;;12.50;99.90;;;;;;5019508;28;20056;-78
2022/10/15 07:15:10;;;;;;;18.95;12.88;;;12.50;99.90;;;;;;5028484;28;20112;-77
2022/10/15 07:17:38;;;;;;;16.50;12.07;;;12.50;99.90;;;;;;5026682;28;20070;-77
2022/10/15 07:20:04;;;;;;;17.63;12.52;;;12.50;99.90;;;;;;5028892;28;20445;-78
2022/10/15 07:22:30;;;;;;;17.38;11.85;;;12.60;99.90;;;;;;5027847;28;20025;-78
2022/10/15 07:24:55;;;;;;;16.05;11.25;;;12.60;99.90;;;;;;5029077;28;20052;-78
2022/10/15 07:27:21;;;;;;;13.23;8.43;;;12.60;99.90;;;;;;5028200;28;20038;-84
2022/10/15 07:29:48;;;;;;;12.23;8.63;;;12.70;99.90;;;;;;5029080;28;20084;-82
2022/10/15 07:32:13;;;;;;;13.65;9.18;;;12.60;99.90;;;;;;5025570;28;20479;-78
2022/10/15 07:34:39;;;;;;;13.77;9.10;;;12.70;99.90;;;;;;5027067;28;20052;-78
2022/10/15 07:37:05;;;;;;;12.55;7.68;;;12.70;99.90;;;;;;5027624;28;20026;-79
2022/10/15 07:39:30;;;;;;;12.73;7.93;;;12.80;99.90;;;;;;5027826;28;20072;-79
2022/10/15 07:41:56;;;;;;;14.40;10.13;;;12.80;99.90;;;;;;5028647;28;20191;-78
2022/10/15 07:44:21;;;;;;;12.23;8.82;;;12.90;99.90;;;;;;5028884;28;21018;-79
2022/10/15 07:46:47;;;;;;;11.63;8.27;;;13.00;99.90;;;;;;5026411;28;20041;-80
2022/10/15 07:49:15;;;;;;;9.80;7.47;;;13.00;99.90;;;;;;5026670;28;20040;-80
2022/10/15 07:51:41;;;;;;;11.82;7.40;;;13.00;99.90;;;;;;5028706;28;20032;-82
2022/10/15 07:54:06;;;;;;;12.88;9.27;;;13.00;99.90;;;;;;5026923;28;20037;-78
2022/10/15 07:56:32;;;;;;;13.38;9.77;;;13.00;99.90;;;;;;5026672;28;20059;-78
2022/10/15 07:58:58;;;;;;;11.15;7.93;;;13.00;99.90;;;;;;5026692;28;20014;-78
2022/10/15 08:01:23;;;;;;;12.15;8.43;;;13.10;99.90;;;;;;5026158;28;20393;-82
2022/10/15 08:03:49;;;;;;;11.30;8.07;;;13.10;99.90;;;;;;5025392;28;20079;-78
2022/10/15 08:06:15;;;;;;;12.65;8.57;;;13.10;99.90;;;;;;5023560;28;20564;-78
2022/10/15 08:08:41;;;;;;;12.77;9.52;;;13.10;99.90;;;;;;5024370;28;20041;-78
2022/10/15 08:11:14;;;;;;;11.13;8.23;;;13.20;99.90;;;;;;5023149;28;20029;-80
2022/10/15 08:13:41;;;;;;;10.75;7.75;;;13.20;99.90;;;;;;5023685;28;20473;-80
2022/10/15 08:16:11;;;;;;;9.23;7.07;;;13.30;99.90;;;;;;5022967;28;20506;-78
2022/10/15 08:18:37;;;;;;;7.53;5.90;;;13.40;99.90;;;;;;5023274;28;20030;-78
2022/10/15 08:21:05;;;;;;;7.82;6.32;;;13.40;99.90;;;;;;5023443;28;20366;-78
2022/10/15 08:23:31;;;;;;;9.57;7.35;;;13.40;99.90;;;;;;5024028;28;20586;-78
2022/10/15 08:26:00;;;;;;;7.97;5.95;;;13.50;99.90;;;;;;5024399;28;20022;-84
2022/10/15 08:28:30;;;;;;;9.15;6.60;;;13.60;99.90;;;;;;5022748;28;20453;-78
2022/10/15 08:30:57;;;;;;;;;;;13.60;99.90;;;;;;5023672;28;20099;-78
2022/10/15 08:33:23;;;;;;;7.75;5.88;;;13.70;99.90;;;;;;5022817;28;20011;-78
2022/10/15 08:35:48;;;;;;;7.88;5.65;;;14.00;99.90;;;;;;5023181;28;20112;-79
2022/10/15 08:38:14;;;;;;;7.35;5.10;;;14.10;99.90;;;;;;5022087;28;20067;-82
2022/10/15 08:40:45;;;;;;;9.77;7.47;;;14.10;99.90;;;;;;5039383;28;20021;-78
2022/10/15 08:43:26;;;;;;;8.65;6.35;;;14.00;99.90;;;;;;5023292;28;20103;-81
2022/10/15 08:45:56;;;;;;;7.75;5.85;;;14.00;99.90;;;;;;5038164;28;20028;-81
2022/10/15 08:48:43;;;;;;;;;;;14.10;99.90;;;;;;5023207;28;20516;-79
2022/10/15 08:51:13;;;;;;;11.10;7.80;;;14.10;99.90;;;;;;5036991;28;19909;-79
2022/10/15 08:53:49;;;;;;;10.40;7.47;;;14.00;99.90;;;;;;5022782;28;20497;-81
2022/10/15 08:56:44;;;;;;;8.60;6.15;;;14.20;99.90;;;;;;5005759;28;20436;-80
2022/10/15 08:59:19;;;;;;;8.27;6.22;;;14.30;99.90;;;;;;5019702;28;20404;-78
2022/10/15 09:01:52;;;;;;;9.15;6.03;;;14.40;99.90;;;;;;5021850;28;20053;-78
2022/10/15 09:04:30;;;;;;;7.13;5.15;;;14.50;99.90;;;;;;5022267;28;20021;-81
2022/10/15 09:07:11;;;;;;;10.60;6.90;;;14.70;99.90;;;;;;5022213;28;20029;-84
2022/10/15 09:09:47;;;;;;;11.90;8.40;;;14.80;99.90;;;;;;5022852;28;20044;-86
2022/10/15 09:12:34;;;;;;;11.00;7.70;;;14.80;99.90;;;;;;5021756;28;20072;-78
2022/10/15 09:15:01;;;;;;;11.23;7.63;;;14.80;99.90;;;;;;5038215;28;20120;-80
2022/10/15 09:17:31;;;;;;;11.30;7.72;;;14.80;99.90;;;;;;5022326;28;20107;-80
2022/10/15 09:20:00;;;;;;;8.40;6.43;;;14.80;99.90;;;;;;5021960;28;20029;-79
2022/10/15 09:22:29;;;;;;;10.07;6.70;;;14.90;99.90;;;;;;5022620;28;20060;-81
2022/10/15 09:24:56;;;;;;;8.43;6.10;;;14.90;99.90;;;;;;5022687;28;20489;-82
2022/10/15 09:27:30;;;;;;;9.65;6.00;;;15.00;99.90;;;;;;5022219;28;20045;-80
2022/10/15 09:30:05;;;;;;;7.78;5.32;;;15.10;99.90;;;;;;5022915;28;20024;-86
2022/10/15 09:32:37;;;;;;;8.32;5.97;;;15.10;99.90;;;;;;5022107;28;20032;-79
2022/10/15 09:35:11;;;;;;;8.82;5.88;;;15.10;99.90;;;;;;5022582;28;20277;-83
2022/10/15 09:38:06;;;;;;;8.27;5.40;;;15.30;99.90;;;;;;5023133;28;20037;-86
2022/10/15 09:41:05;;;;;;;6.20;4.28;;;15.50;99.90;;;;;;5021354;28;20112;-80
2022/10/15 09:43:37;;;;;;;5.97;4.55;;;15.60;99.90;;;;;;5021746;28;20036;-78
2022/10/15 09:46:03;;;;;;;6.40;4.22;;;15.50;99.90;;;;;;5022147;28;20065;-79
2022/10/15 09:48:40;;;;;;;6.30;4.55;;;15.50;99.90;;;;;;5022655;28;20033;-79
2022/10/15 09:51:21;;;;;;;5.28;3.95;;;15.50;99.90;;;;;;5023928;28;20034;-79
2022/10/15 09:54:11;;;;;;;6.50;4.20;;;15.50;99.90;;;;;;5023246;28;20040;-79
2022/10/15 09:56:46;;;;;;;;;;;15.60;99.90;;;;;;5025667;28;20021;-83
2022/10/15 09:59:17;;;;;;;4.45;2.83;;;15.70;99.90;;;;;;5026309;28;19979;-79
2022/10/15 10:02:04;;;;;;;4.10;2.97;;;15.60;99.90;;;;;;5026660;28;20021;-79
2022/10/15 10:04:32;;;;;;;4.63;3.05;;;15.70;99.90;;;;;;5025141;28;20040;-78
2022/10/15 10:07:06;;;;;;;3.80;2.70;;;15.80;99.90;;;;;;5025695;28;20025;-79
2022/10/15 10:09:52;;;;;;;4.45;3.45;;;15.80;99.90;;;;;;5025900;28;20056;-79
2022/10/15 10:12:27;;;;;;;4.72;2.58;;;15.80;99.90;;;;;;5040120;28;20541;-80
2022/10/15 10:15:02;;;;;;;6.18;3.72;;;15.80;99.90;;;;;;5026850;28;20596;-82
2022/10/15 10:17:29;;;;;;;5.10;3.45;;;15.80;99.90;;;;;;5024803;28;20041;-79
2022/10/15 10:20:17;;;;;;;5.45;3.53;;;15.80;99.90;;;;;;5026789;28;20110;-80
2022/10/15 10:22:49;;;;;;;5.28;3.15;;;15.80;99.90;;;;;;5025827;28;20057;-78
2022/10/15 10:25:28;;;;;;;4.97;3.13;;;15.80;99.90;;;;;;5025452;28;20055;-80
2022/10/15 10:28:05;;;;;;;5.90;4.47;;;15.70;99.90;;;;;;5025451;28;20053;-79
2022/10/15 10:30:42;;;;;;;8.80;4.97;;;15.60;99.90;;;;;;5040105;28;20059;-79
2022/10/15 10:33:13;;;;;;;6.60;4.78;;;15.50;99.90;;;;;;5040891;28;20132;-79
2022/10/15 10:35:49;;;;;;;4.65;3.70;;;15.50;99.90;;;;;;5025617;28;20033;-80
2022/10/15 10:38:24;;;;;;;7.22;4.57;;;15.40;99.90;;;;;;5023801;28;20033;-82
2022/10/15 10:41:04;;;;;;;5.57;4.05;;;15.40;99.90;;;;;;5024712;28;20485;-82
2022/10/15 10:43:30;;;;;;;5.93;3.85;;;15.30;99.90;;;;;;5024835;28;20033;-81
2022/10/15 10:46:05;;;;;;;5.47;3.33;;;15.40;99.90;;;;;;5025110;28;20500;-79
2022/10/15 10:48:38;;;;;;;5.95;3.30;;;15.30;99.90;;;;;;5008716;28;20056;-78
2022/10/15 10:51:09;;;;;;;6.53;3.97;;;15.40;99.90;;;;;;5025514;28;20041;-79
2022/10/15 10:53:58;;;;;;;5.82;4.18;;;15.40;99.90;;;;;;5040371;28;20052;-78
2022/10/15 10:56:38;;;;;;;5.50;3.72;;;15.40;99.90;;;;;;5023480;28;20040;-79
2022/10/15 10:59:21;;;;;;;6.20;4.43;;;15.40;99.90;;;;;;5024182;28;20393;-79
2022/10/15 11:01:48;;;;;;;4.60;3.53;;;15.30;99.90;;;;;;5024944;28;20842;-81
2022/10/15 11:04:30;;;;;;;3.78;2.25;;;15.40;99.90;;;;;;5025179;28;20482;-80
2022/10/15 11:07:08;;;;;;;4.10;2.22;;;15.50;99.90;;;;;;5024014;28;20626;-77
2022/10/15 11:10:12;;;;;;;4.35;2.25;;;15.50;99.90;;;;;;5025822;28;20044;-78
2022/10/15 11:13:16;;;;;;;4.03;2.55;;;15.40;99.90;;;;;;5024183;28;20060;-81
2022/10/15 11:16:14;;;;;;;4.38;2.25;;;15.40;99.90;;;;;;5025357;28;20123;-83
2022/10/15 11:18:55;;;;;;;2.95;2.03;;;15.30;99.90;;;;;;5023794;28;20021;-84
2022/10/15 11:22:01;;;;;;;4.32;2.67;;;15.30;99.90;;;;;;5024292;28;20022;-78
2022/10/15 11:25:07;;;;;;;3.17;1.58;;;15.30;99.90;;;;;;5022616;28;20460;-78
2022/10/15 11:27:35;;;;;;;3.28;1.48;;;15.30;99.90;;;;;;5040364;28;20322;-78
2022/10/15 11:30:30;;;;;;;2.95;1.00;;;15.30;99.90;;;;;;5007442;28;20036;-78
2022/10/15 11:33:15;;;;;;;3.30;1.30;;;15.30;99.90;;;;;;4995148;28;20445;-82
2022/10/15 11:36:16;;;;;;;2.83;1.08;;;15.30;99.90;;;;;;5024268;28;20508;-81
2022/10/15 11:39:00;;;;;;;2.03;0.93;;;15.30;99.90;;;;;;4983364;28;20054;-82
2022/10/15 11:41:40;;;;;;;2.03;0.90;;;15.20;99.90;;;;;;4982185;28;20042;-79
2022/10/15 11:44:19;;;;;;;2.95;1.13;;;15.30;99.90;;;;;;4983978;28;20444;-79
2022/10/15 11:46:56;;;;;;;2.00;1.00;;;15.30;99.90;;;;;;4966976;28;20396;-80
2022/10/15 11:49:31;;;;;;;1.23;0.60;;;15.20;99.90;;;;;;4951165;28;20456;-79
2022/10/15 11:52:18;;;;;;;1.80;0.80;;;15.20;99.90;;;;;;4983122;28;20034;-79
2022/10/15 11:55:00;;;;;;;1.42;0.70;;;15.20;99.90;;;;;;4982216;28;20030;-78
2022/10/15 11:57:29;;;;;;;1.73;0.70;;;15.20;99.90;;;;;;4983092;28;20041;-83
2022/10/15 12:00:01;;;;;;;1.70;0.63;;;15.30;99.90;;;;;;4982553;28;20046;-80
2022/10/15 12:02:34;;;;;;;1.65;0.65;;;15.40;99.90;;;;;;4966711;28;20566;-83
2022/10/15 12:05:13;;;;;;;1.48;0.63;;;15.40;99.90;;;;;;4967338;28;20101;-78
2022/10/15 12:07:49;;;;;;;1.48;0.60;;;15.50;99.90;;;;;;4966039;28;20125;-76
2022/10/15 12:10:46;;;;;;;1.05;0.40;;;15.50;99.90;;;;;;4982027;28;20026;-77
2022/10/15 12:13:22;;;;;;;1.15;0.50;;;15.50;99.90;;;;;;4989022;28;20140;-77
2022/10/15 12:16:27;;;;;;;1.25;0.50;;;15.50;99.90;;;;;;5039670;28;20029;-77
2022/10/15 12:19:16;;;;;;;1.45;0.70;;;15.50;99.90;;;;;;5024372;28;20082;-82
2022/10/15 12:22:06;;;;;;;1.55;0.50;;;15.50;99.90;;;;;;5039398;28;20026;-83
2022/10/15 12:24:49;;;;;;;1.60;0.50;;;15.50;99.90;;;;;;5023118;28;20013;-78
2022/10/15 12:27:33;;;;;;;0.73;0.40;;;15.50;99.90;;;;;;5039097;28;20055;-82
2022/10/15 12:29:58;;;;;;;0.98;0.35;;;15.50;99.90;;;;;;5023962;28;20029;-77
2022/10/15 12:32:45;;;;;;;0.70;0.30;;;15.50;99.90;;;;;;5022993;28;20036;-76
2022/10/15 12:35:13;;;;;;;1.20;0.40;;;15.60;99.90;;;;;;5022889;28;20037;-80
2022/10/15 12:37:42;;;;;;;1.17;0.40;;;15.60;99.90;;;;;;5022381;28;20466;-76
2022/10/15 12:40:25;;;;;;;0.70;0.30;;;15.70;99.90;;;;;;5023236;28;20052;-76
2022/10/15 12:42:59;;;;;;;0.80;0.30;;;15.70;99.90;;;;;;5023736;28;20080;-82
2022/10/15 12:45:38;;;;;;;0.98;0.30;;;15.80;99.90;;;;;;5023936;28;20040;-77
2022/10/15 12:48:03;;;;;;;1.00;0.28;;;15.80;99.90;;;;;;5038172;28;20041;-76
2022/10/15 12:50:34;;;;;;;1.40;0.30;;;15.80;99.90;;;;;;5023125;28;20032;-77
2022/10/15 12:53:20;;;;;;;0.98;0.32;;;15.90;99.90;;;;;;5022795;28;20043;-79
2022/10/15 12:56:10;;;;;;;1.50;0.30;;;16.00;99.90;;;;;;5022923;28;20017;-78
2022/10/15 12:58:43;;;;;;;1.40;0.30;;;15.90;99.90;;;;;;5023886;28;20021;-76
2022/10/15 13:01:12;;;;;;;2.10;0.40;;;16.00;99.90;;;;;;5038250;28;20180;-80
2022/10/15 13:03:50;;;;;;;0.85;0.30;;;16.10;99.90;;;;;;5022495;28;20046;-80
2022/10/15 13:06:21;;;;;;;1.55;0.30;;;16.20;99.90;;;;;;5021875;28;20033;-76
2022/10/15 13:08:57;;;;;;;1.23;0.30;;;16.20;99.90;;;;;;5024123;28;20068;-80
2022/10/15 13:11:40;;;;;;;0.60;0.30;;;16.20;99.90;;;;;;5037250;28;20030;-87